createdAt,value
2023-01-19T00:02:02.116Z,15.20
2023-01-19T00:04:32.882Z,14.80
2023-01-19T00:07:05.279Z,12.30
2023-01-19T00:09:38.481Z,11.00
2023-01-19T00:12:09.825Z,15.60
2023-01-19T00:14:40.277Z,24.60
2023-01-19T00:17:10.944Z,30.80
2023-01-19T00:19:41.583Z,13.80
2023-01-19T00:22:11.958Z,11.70
2023-01-19T00:24:42.346Z,14.10
2023-01-19T00:27:12.701Z,13.40
2023-01-19T00:29:43.098Z,15.10
2023-01-19T00:32:13.450Z,12.70
2023-01-19T00:34:49.484Z,17.30
2023-01-19T00:37:20.754Z,30.10
2023-01-19T00:39:51.190Z,32.10
2023-01-19T00:42:39.323Z,16.70
2023-01-19T00:45:12.686Z,16.10
2023-01-19T00:47:43.277Z,12.80
2023-01-19T00:50:16.852Z,8.50
2023-01-19T00:52:47.353Z,10.20
2023-01-19T00:55:18.460Z,13.30
2023-01-19T00:57:48.928Z,18.80
2023-01-19T01:00:20.948Z,23.40
2023-01-19T01:02:52.676Z,28.60
2023-01-19T01:05:23.471Z,13.20
2023-01-19T01:07:53.817Z,14.00
2023-01-19T01:10:26.350Z,13.90
2023-01-19T01:12:59.385Z,13.20
2023-01-19T01:15:50.204Z,9.20
2023-01-19T01:18:20.802Z,12.30
2023-01-19T01:20:51.363Z,16.70
2023-01-19T01:23:22.815Z,11.00
2023-01-19T01:25:53.460Z,21.50
2023-01-19T01:28:23.878Z,30.20
2023-01-19T01:30:57.117Z,33.90
2023-01-19T01:33:41.113Z,33.90
2023-01-19T01:36:12.862Z,14.20
2023-01-19T01:38:43.672Z,14.30
2023-01-19T01:41:14.096Z,12.60
2023-01-19T01:43:48.297Z,12.00
2023-01-19T01:46:22.674Z,14.20
2023-01-19T01:48:55.666Z,11.50
2023-01-19T01:51:29.331Z,10.90
2023-01-19T01:54:07.556Z,16.60
2023-01-19T01:56:39.794Z,25.10
2023-01-19T01:59:12.252Z,28.90
2023-01-19T02:02:00.292Z,30.40
2023-01-19T02:04:32.000Z,19.50
2023-01-19T02:07:20.364Z,11.80
2023-01-19T02:10:08.430Z,15.40
2023-01-19T02:12:56.164Z,14.00
2023-01-19T02:15:26.552Z,11.10
2023-01-19T02:17:58.537Z,11.50
2023-01-19T02:20:30.390Z,20.40
2023-01-19T02:23:04.070Z,19.40
2023-01-19T02:25:34.778Z,37.00
2023-01-19T02:28:05.692Z,29.80
2023-01-19T02:30:36.919Z,18.50
2023-01-19T02:33:07.524Z,14.60
2023-01-19T02:35:39.083Z,13.40
2023-01-19T02:38:10.253Z,14.60
2023-01-19T02:40:41.202Z,14.10
2023-01-19T02:43:11.970Z,23.10
2023-01-19T02:45:43.803Z,32.50
2023-01-19T02:48:14.457Z,28.30
2023-01-19T02:50:49.392Z,18.10
2023-01-19T02:53:49.754Z,16.70
2023-01-19T02:56:36.030Z,14.20
2023-01-19T02:59:15.735Z,14.80
2023-01-19T03:02:04.598Z,22.10
2023-01-19T03:04:45.102Z,23.20
2023-01-19T03:08:16.073Z,15.30
2023-01-19T03:10:51.219Z,13.90
2023-01-19T03:13:25.498Z,17.50
2023-01-19T03:15:58.821Z,16.10
2023-01-19T03:18:30.640Z,14.70
2023-01-19T03:21:05.202Z,23.50
2023-01-19T03:23:38.066Z,28.20
2023-01-19T03:26:12.109Z,25.20
2023-01-19T03:28:44.693Z,15.10
2023-01-19T03:31:16.457Z,15.90
2023-01-19T03:33:52.731Z,16.70
2023-01-19T03:36:28.757Z,20.30
2023-01-19T03:39:00.387Z,13.80
2023-01-19T03:41:32.490Z,18.20
2023-01-19T03:44:03.179Z,12.90
2023-01-19T03:46:34.266Z,20.30
2023-01-19T03:49:04.720Z,35.10
2023-01-19T03:51:38.934Z,21.70
2023-01-19T03:54:10.742Z,40.90
2023-01-19T03:56:41.134Z,22.10
2023-01-19T03:59:11.553Z,17.40
2023-01-19T04:01:42.005Z,14.40
2023-01-19T04:04:13.389Z,17.50
2023-01-19T04:06:43.898Z,15.40
2023-01-19T04:09:14.380Z,19.00
2023-01-19T04:11:44.953Z,24.10
2023-01-19T04:14:15.308Z,37.00
2023-01-19T04:16:45.901Z,39.70
2023-01-19T04:19:16.250Z,49.80
2023-01-19T04:21:46.709Z,26.90
2023-01-19T04:24:17.247Z,18.80
2023-01-19T04:26:47.627Z,14.00
2023-01-19T04:29:18.043Z,17.20
2023-01-19T04:31:48.363Z,18.40
2023-01-19T04:34:18.785Z,18.20
2023-01-19T04:36:51.069Z,26.90
2023-01-19T04:39:21.465Z,41.10
2023-01-19T04:41:52.938Z,37.80
2023-01-19T04:44:23.319Z,20.60
2023-01-19T04:46:53.942Z,18.30
2023-01-19T04:49:24.277Z,17.80
2023-01-19T04:51:56.340Z,15.60
2023-01-19T04:54:27.001Z,18.00
2023-01-19T04:56:57.620Z,16.80
2023-01-19T04:59:28.062Z,17.60
2023-01-19T05:01:58.469Z,24.00
2023-01-19T05:04:29.080Z,34.00
2023-01-19T05:06:59.422Z,36.90
2023-01-19T05:09:29.885Z,28.90
2023-01-19T05:12:00.524Z,17.90
2023-01-19T05:14:31.226Z,20.90
2023-01-19T05:17:03.209Z,18.80
2023-01-19T05:19:33.577Z,19.70
2023-01-19T05:22:04.965Z,14.20
2023-01-19T05:24:35.362Z,22.90
2023-01-19T05:27:05.997Z,24.30
2023-01-19T05:29:36.537Z,32.70
2023-01-19T05:32:07.663Z,27.20
2023-01-19T05:34:38.175Z,21.40
2023-01-19T05:37:08.605Z,19.90
2023-01-19T05:39:39.008Z,16.60
2023-01-19T05:42:09.696Z,17.90
2023-01-19T05:44:40.172Z,12.00
2023-01-19T05:47:10.756Z,16.60
2023-01-19T05:49:41.202Z,30.40
2023-01-19T05:52:11.714Z,21.30
2023-01-19T05:54:42.042Z,22.90
2023-01-19T05:57:12.412Z,18.20
2023-01-19T05:59:43.061Z,18.10
2023-01-19T06:02:13.528Z,19.70
2023-01-19T06:04:44.573Z,22.90
2023-01-19T06:07:14.954Z,23.00
2023-01-19T06:09:45.591Z,29.40
2023-01-19T06:12:15.954Z,33.30
2023-01-19T06:14:46.338Z,16.00
2023-01-19T06:17:16.901Z,15.30
2023-01-19T06:19:47.326Z,20.40
2023-01-19T06:22:17.853Z,19.40
2023-01-19T06:24:48.225Z,19.90
2023-01-19T06:27:18.757Z,25.20
2023-01-19T06:29:49.117Z,26.40
2023-01-19T06:32:19.737Z,37.30
2023-01-19T06:34:51.067Z,34.40
2023-01-19T06:39:52.158Z,23.60
2023-01-19T06:42:22.834Z,19.70
2023-01-19T06:44:53.162Z,19.10
2023-01-19T06:47:23.609Z,24.10
2023-01-19T06:49:54.217Z,31.10
2023-01-19T06:52:24.580Z,41.50
2023-01-19T06:54:54.934Z,34.40
2023-01-19T06:57:27.238Z,20.80
2023-01-19T06:59:59.223Z,20.30
2023-01-19T07:02:29.737Z,23.20
2023-01-19T07:05:00.321Z,19.20
2023-01-19T07:07:30.696Z,22.00
2023-01-19T07:10:01.036Z,29.30
2023-01-19T07:12:32.798Z,36.30
2023-01-19T07:15:03.201Z,35.70
2023-01-19T07:17:33.758Z,20.20
2023-01-19T07:20:04.343Z,21.50
2023-01-19T07:22:34.781Z,22.60
2023-01-19T07:25:05.478Z,23.20
2023-01-19T07:27:35.898Z,17.90
2023-01-19T07:30:07.927Z,21.70
2023-01-19T07:32:38.299Z,29.00
2023-01-19T07:35:09.718Z,39.10
2023-01-19T07:37:40.685Z,41.90
2023-01-19T07:40:12.757Z,24.90
2023-01-19T07:42:48.704Z,20.30
2023-01-19T07:45:20.361Z,15.70
2023-01-19T07:47:51.788Z,19.60
2023-01-19T07:50:24.581Z,20.60
2023-01-19T07:52:55.147Z,27.50
2023-01-19T07:55:26.054Z,35.00
2023-01-19T07:57:56.412Z,25.80
2023-01-19T08:00:26.978Z,22.20
2023-01-19T08:03:01.862Z,20.70
2023-01-19T08:05:32.725Z,25.10
2023-01-19T08:08:03.878Z,22.20
2023-01-19T08:10:34.767Z,24.10
2023-01-19T08:13:05.163Z,23.10
2023-01-19T08:15:35.559Z,27.30
2023-01-19T08:18:08.349Z,31.90
2023-01-19T08:20:39.232Z,28.00
2023-01-19T08:23:09.588Z,22.00
2023-01-19T08:25:42.134Z,24.70
2023-01-19T08:28:16.381Z,24.70
2023-01-19T08:30:53.880Z,24.70
2023-01-19T08:33:25.316Z,22.20
2023-01-19T08:35:56.074Z,19.30
2023-01-19T08:38:26.408Z,22.60
2023-01-19T08:40:56.860Z,25.90
2023-01-19T08:43:27.437Z,29.40
2023-01-19T08:45:57.813Z,27.90
2023-01-19T08:48:28.320Z,22.20
2023-01-19T08:50:59.095Z,20.30
2023-01-19T08:53:29.545Z,20.60
2023-01-19T08:56:01.263Z,20.50
2023-01-19T08:58:31.668Z,22.80
2023-01-19T09:01:04.269Z,24.60
2023-01-19T09:03:34.963Z,24.70
2023-01-19T09:06:07.869Z,30.80
2023-01-19T09:11:11.153Z,23.80
2023-01-19T09:13:41.995Z,15.20
2023-01-19T09:16:15.199Z,22.10
2023-01-19T09:18:46.193Z,21.30
2023-01-19T09:21:16.597Z,19.90
2023-01-19T09:23:47.148Z,25.30
2023-01-19T09:26:17.655Z,24.90
2023-01-19T09:28:51.180Z,26.60
2023-01-19T09:31:21.776Z,24.90
2023-01-19T09:33:52.419Z,19.80
2023-01-19T09:36:22.705Z,21.10
2023-01-19T09:38:53.091Z,15.60
2023-01-19T09:41:25.982Z,19.40
2023-01-19T09:44:00.276Z,20.70
2023-01-19T09:49:37.960Z,18.20
2023-01-19T09:52:10.604Z,21.40
2023-01-19T09:54:44.364Z,18.40
2023-01-19T09:57:15.349Z,16.50
2023-01-19T09:59:49.415Z,18.80
2023-01-19T10:02:37.636Z,18.80
2023-01-19T10:05:13.287Z,17.40
2023-01-19T10:07:54.569Z,18.40
2023-01-19T10:10:27.356Z,15.50
2023-01-19T10:13:11.514Z,13.80
2023-01-19T10:15:53.392Z,16.30
2023-01-19T10:18:30.953Z,16.50
2023-01-19T10:21:05.700Z,15.70
2023-01-19T10:23:41.648Z,16.60
2023-01-19T10:26:17.245Z,17.00
2023-01-19T10:28:48.893Z,13.10
2023-01-19T10:31:22.261Z,13.60
2023-01-19T10:33:54.082Z,13.00
2023-01-19T10:36:35.713Z,14.50
2023-01-19T10:39:07.774Z,16.20
2023-01-19T10:41:43.634Z,15.70
2023-01-19T10:44:14.145Z,13.10
2023-01-19T10:46:46.689Z,12.70
2023-01-19T10:49:29.284Z,16.10
2023-01-19T10:52:00.559Z,16.10
2023-01-19T10:54:32.817Z,13.60
2023-01-19T10:57:04.842Z,15.30
2023-01-19T10:59:38.146Z,14.00
2023-01-19T11:02:19.362Z,12.40
2023-01-19T11:04:53.195Z,14.60
2023-01-19T11:07:25.013Z,14.80
2023-01-19T11:10:17.645Z,15.70
2023-01-19T11:12:54.409Z,12.80
2023-01-19T11:15:26.932Z,12.70
2023-01-19T11:17:57.471Z,11.30
2023-01-19T11:20:29.852Z,13.10
2023-01-19T11:23:21.320Z,10.90
2023-01-19T11:25:53.361Z,15.40
2023-01-19T11:28:28.100Z,15.60
2023-01-19T11:31:00.200Z,13.50
2023-01-19T11:33:37.132Z,12.50
2023-01-19T11:36:14.916Z,14.50
2023-01-19T11:38:46.955Z,12.50
2023-01-19T11:41:21.618Z,11.80
2023-01-19T11:43:54.284Z,12.90
2023-01-19T11:46:26.076Z,12.00
2023-01-19T11:49:01.944Z,11.50
2023-01-19T11:51:37.492Z,13.00
2023-01-19T11:54:18.975Z,10.70
2023-01-19T11:56:51.982Z,14.60
2023-01-19T12:01:56.576Z,12.50
2023-01-19T12:04:30.662Z,9.20
2023-01-19T12:07:06.879Z,9.90
2023-01-19T12:09:42.543Z,9.60
2023-01-19T12:12:18.855Z,10.60
2023-01-19T12:14:54.231Z,12.60
2023-01-19T12:17:27.714Z,11.10
2023-01-19T12:20:07.219Z,10.30
2023-01-19T12:22:41.581Z,11.50
2023-01-19T12:25:19.637Z,9.10
2023-01-19T12:27:51.287Z,9.80
2023-01-19T12:30:24.048Z,10.00
2023-01-19T12:32:54.651Z,10.00
2023-01-19T12:41:27.452Z,11.10
2023-01-19T12:44:27.716Z,10.20
2023-01-19T12:47:04.085Z,13.70
2023-01-19T12:49:40.627Z,11.60
2023-01-19T12:52:21.053Z,12.50
2023-01-19T12:54:58.105Z,11.50
2023-01-19T12:57:32.800Z,13.00
2023-01-19T13:00:06.859Z,12.10
2023-01-19T13:02:54.428Z,14.10
2023-01-19T13:05:53.461Z,14.10
2023-01-19T13:08:26.375Z,14.60
2023-01-19T13:13:42.245Z,9.50
2023-01-19T13:17:02.411Z,11.30
2023-01-19T13:19:43.631Z,7.40
2023-01-19T13:23:03.762Z,12.00
2023-01-19T13:25:36.458Z,11.90
2023-01-19T13:28:11.914Z,12.50
2023-01-19T13:30:54.297Z,9.80
2023-01-19T13:33:27.925Z,11.50
2023-01-19T13:35:59.679Z,13.50
2023-01-19T13:38:32.813Z,13.50
2023-01-19T13:41:04.809Z,13.40
2023-01-19T13:43:38.902Z,14.80
2023-01-19T13:46:12.380Z,10.60
2023-01-19T13:48:43.209Z,8.90
2023-01-19T13:51:20.049Z,8.40
2023-01-19T13:53:57.615Z,9.30
2023-01-19T13:56:28.992Z,13.10
2023-01-19T13:59:09.804Z,12.90
2023-01-19T14:01:42.534Z,13.20
2023-01-19T14:06:59.985Z,8.80
2023-01-19T14:09:30.528Z,12.00
2023-01-19T14:12:14.299Z,11.60
2023-01-19T14:14:46.755Z,12.00
2023-01-19T14:17:26.230Z,15.20
2023-01-19T14:19:57.681Z,14.90
2023-01-19T14:22:42.010Z,9.80
2023-01-19T14:25:39.858Z,8.30
2023-01-19T14:28:35.274Z,10.80
2023-01-19T14:31:20.712Z,12.20
2023-01-19T14:33:53.548Z,18.60
2023-01-19T14:36:29.403Z,12.00
2023-01-19T14:39:01.467Z,11.10
2023-01-19T14:41:34.783Z,7.70
2023-01-19T14:44:10.864Z,9.30
2023-01-19T14:46:47.173Z,10.90
2023-01-19T14:49:22.842Z,12.00
2023-01-19T14:55:52.358Z,11.30
2023-01-19T14:58:24.916Z,10.70
2023-01-19T15:00:56.195Z,10.70
2023-01-19T15:03:43.406Z,13.90
2023-01-19T15:06:16.767Z,15.00
2023-01-19T15:08:48.804Z,16.60
2023-01-19T15:11:23.312Z,15.00
2023-01-19T15:13:55.079Z,14.00
2023-01-19T15:16:25.930Z,11.60
2023-01-19T15:18:56.601Z,15.30
2023-01-19T15:21:28.401Z,14.40
2023-01-19T15:23:59.151Z,16.60
2023-01-19T15:26:29.743Z,18.80
2023-01-19T15:29:00.152Z,15.30
2023-01-19T15:31:30.544Z,15.00
2023-01-19T15:34:59.983Z,13.40
2023-01-19T15:38:15.651Z,12.50
2023-01-19T15:40:51.410Z,14.20
2023-01-19T15:43:22.340Z,19.70
2023-01-19T15:45:56.214Z,20.90
2023-01-19T15:48:26.674Z,17.80
2023-01-19T15:50:57.063Z,17.20
2023-01-19T15:53:27.867Z,18.00
2023-01-19T15:56:00.626Z,16.70
2023-01-19T15:58:31.087Z,18.30
2023-01-19T16:01:01.583Z,21.30
2023-01-19T16:03:33.426Z,22.00
2023-01-19T16:06:03.990Z,19.10
2023-01-19T16:08:49.802Z,19.50
2023-01-19T16:11:20.189Z,19.80
2023-01-19T16:13:50.642Z,18.50
2023-01-19T16:16:23.386Z,22.40
2023-01-19T16:18:56.850Z,23.30
2023-01-19T16:21:28.242Z,21.90
2023-01-19T16:24:45.945Z,18.80
2023-01-19T16:43:42.575Z,21.30
2023-01-19T16:46:22.970Z,20.50
2023-01-19T16:48:54.124Z,24.60
2023-01-19T16:51:24.450Z,29.00
2023-01-19T16:53:54.861Z,31.60
2023-01-19T16:56:25.411Z,22.20
2023-01-19T16:59:02.701Z,18.90
2023-01-19T17:01:38.327Z,19.60
2023-01-19T17:04:15.878Z,21.10
2023-01-19T17:06:47.499Z,24.70
2023-01-19T17:09:18.161Z,26.60
2023-01-19T17:11:48.621Z,19.70
2023-01-19T17:14:21.282Z,18.90
2023-01-19T17:16:54.486Z,19.20
2023-01-19T17:19:24.972Z,25.00
2023-01-19T17:21:57.326Z,29.20
2023-01-19T17:24:30.853Z,29.50
2023-01-19T17:27:01.930Z,24.60
2023-01-19T17:29:32.394Z,17.70
2023-01-19T17:32:02.759Z,20.80
2023-01-19T17:34:33.566Z,20.00
2023-01-19T17:37:04.300Z,21.00
2023-01-19T17:39:34.726Z,24.00
2023-01-19T17:42:08.336Z,30.70
2023-01-19T17:44:38.651Z,24.20
2023-01-19T17:47:11.168Z,19.20
2023-01-19T17:49:44.185Z,21.40
2023-01-19T17:52:18.026Z,21.70
2023-01-19T17:54:48.386Z,21.20
2023-01-19T17:57:18.874Z,33.50
2023-01-19T17:59:49.751Z,30.40
2023-01-19T18:02:24.446Z,19.40
2023-01-19T18:04:56.166Z,21.70
2023-01-19T18:07:26.556Z,18.70
2023-01-19T18:09:58.981Z,19.30
2023-01-19T18:12:31.417Z,19.40
2023-01-19T18:15:01.918Z,21.80
2023-01-19T18:17:33.214Z,23.20
2023-01-19T18:20:03.536Z,22.50
2023-01-19T18:22:34.115Z,20.70
2023-01-19T18:25:05.024Z,19.30
2023-01-19T18:27:35.426Z,20.20
2023-01-19T18:30:07.068Z,20.60
2023-01-19T18:32:37.919Z,25.70
2023-01-19T18:35:10.345Z,31.60
2023-01-19T18:37:40.747Z,27.80
2023-01-19T18:40:13.388Z,24.60
2023-01-19T18:42:43.961Z,23.30
2023-01-19T18:45:14.679Z,22.10
2023-01-19T18:47:45.122Z,20.90
2023-01-19T18:50:15.891Z,29.20
2023-01-19T18:52:48.678Z,33.80
2023-01-19T18:55:19.333Z,29.00
2023-01-19T18:57:50.833Z,22.30
2023-01-19T19:00:22.669Z,21.30
2023-01-19T19:02:53.402Z,23.50
2023-01-19T19:05:23.953Z,35.20
2023-01-19T19:07:54.697Z,40.50
2023-01-19T19:10:25.710Z,35.50
2023-01-19T19:12:56.313Z,35.40
2023-01-19T19:15:27.233Z,29.30
2023-01-19T19:17:57.660Z,26.70
2023-01-19T19:20:28.131Z,25.80
2023-01-19T19:22:58.811Z,25.50
2023-01-19T19:25:29.647Z,24.50
2023-01-19T19:28:00.522Z,33.00
2023-01-19T19:30:32.446Z,23.00
2023-01-19T19:33:02.927Z,22.60
2023-01-19T19:35:33.395Z,22.10
2023-01-19T19:38:03.941Z,15.90
2023-01-19T19:40:34.519Z,11.30
2023-01-19T19:43:05.171Z,12.90
2023-01-19T19:45:35.679Z,8.30
2023-01-19T19:48:07.131Z,12.20
2023-01-19T19:50:38.270Z,13.30
2023-01-19T19:53:08.683Z,15.10
2023-01-19T19:55:39.057Z,13.10
2023-01-19T19:58:09.533Z,12.60
2023-01-19T20:00:42.776Z,8.70
2023-01-19T20:03:13.856Z,8.80
2023-01-19T20:05:44.725Z,10.80
2023-01-19T20:08:15.666Z,7.60
2023-01-19T20:10:46.265Z,13.00
2023-01-19T20:13:19.337Z,14.50
2023-01-19T20:18:19.590Z,22.40
2023-01-19T20:20:50.425Z,10.90
2023-01-19T20:23:20.958Z,9.70
2023-01-19T20:25:51.714Z,7.40
2023-01-19T20:28:22.331Z,9.50
2023-01-19T20:30:54.686Z,12.80
2023-01-19T20:33:25.295Z,8.10
2023-01-19T20:35:55.865Z,16.60
2023-01-19T20:38:26.383Z,13.90
2023-01-19T20:40:56.908Z,15.00
2023-01-19T20:43:27.297Z,11.00
2023-01-19T20:45:58.321Z,10.50
2023-01-19T20:48:29.185Z,8.80
2023-01-19T20:51:04.470Z,8.70
2023-01-19T20:53:36.687Z,8.20
2023-01-19T20:56:11.499Z,10.00
2023-01-19T20:58:45.403Z,11.90
2023-01-19T21:01:17.991Z,11.90
2023-01-19T21:03:49.244Z,11.70
2023-01-19T21:06:20.694Z,8.40
2023-01-19T21:08:51.638Z,8.10
2023-01-19T21:11:23.960Z,6.70
2023-01-19T21:13:56.151Z,8.60
2023-01-19T21:16:28.107Z,7.00
2023-01-19T21:18:58.576Z,9.30
2023-01-19T21:21:31.170Z,12.90
2023-01-19T21:24:03.368Z,9.90
2023-01-19T21:26:34.300Z,10.40
2023-01-19T21:29:05.045Z,8.00
2023-01-19T21:31:35.531Z,6.00
2023-01-19T21:34:06.005Z,8.50
2023-01-19T21:36:36.672Z,6.50
2023-01-19T21:39:08.102Z,7.60
2023-01-19T21:41:40.181Z,8.90
2023-01-19T21:44:10.665Z,9.60
2023-01-19T21:46:41.197Z,8.70
2023-01-19T21:49:17.287Z,7.70
2023-01-19T21:51:49.135Z,5.90
2023-01-19T21:54:20.232Z,7.70
2023-01-19T21:56:50.768Z,6.80
2023-01-19T21:59:21.350Z,6.50
2023-01-19T22:01:51.988Z,8.40
2023-01-19T22:04:22.771Z,8.00
2023-01-19T22:06:53.249Z,4.80
2023-01-19T22:09:23.719Z,5.00
2023-01-19T22:11:54.283Z,5.50
2023-01-19T22:14:24.690Z,5.40
2023-01-19T22:16:55.199Z,6.10
2023-01-19T22:19:25.744Z,4.00
2023-01-19T22:21:56.156Z,5.80
2023-01-19T22:24:26.545Z,5.40
2023-01-19T22:26:56.937Z,7.80
2023-01-19T22:29:27.385Z,4.40
2023-01-19T22:31:57.722Z,4.10
2023-01-19T22:34:28.408Z,3.60
2023-01-19T22:36:58.802Z,4.60
2023-01-19T22:39:29.363Z,3.90
2023-01-19T22:41:59.689Z,4.10
2023-01-19T22:44:30.108Z,6.50
2023-01-19T22:47:00.569Z,4.50
2023-01-19T22:49:31.047Z,7.00
2023-01-19T22:52:01.483Z,3.70
2023-01-19T22:54:32.451Z,3.60
2023-01-19T22:57:03.041Z,8.80
2023-01-19T22:59:33.590Z,10.70
2023-01-19T23:02:04.318Z,17.00
2023-01-19T23:04:34.759Z,21.00
2023-01-19T23:07:05.243Z,25.00
2023-01-19T23:09:36.072Z,20.50
2023-01-19T23:12:07.232Z,19.30
2023-01-19T23:14:37.562Z,15.30
2023-01-19T23:17:07.973Z,18.50
2023-01-19T23:19:38.539Z,13.20
2023-01-19T23:22:09.024Z,14.70
2023-01-19T23:24:39.659Z,14.50
2023-01-19T23:27:11.745Z,16.40
2023-01-19T23:29:42.119Z,26.80
2023-01-19T23:32:12.487Z,19.60
2023-01-19T23:34:43.100Z,13.50
2023-01-19T23:37:13.427Z,16.70
2023-01-19T23:39:43.800Z,15.50
2023-01-19T23:42:14.176Z,16.10
2023-01-19T23:44:44.951Z,16.40
2023-01-19T23:47:15.314Z,21.50
2023-01-19T23:49:45.804Z,31.00
2023-01-19T23:52:16.378Z,27.30
2023-01-19T23:54:47.065Z,14.50
2023-01-19T23:57:17.558Z,9.70
2023-01-19T23:59:48.112Z,6.80
